Time;durP1;ratioP1;P1;durP2;ratioP2;P2;SDS_P1;SDS_P2;PMS_P1;PMS_P2;Temp;Humidity;BMP_temperature;BMP_pressure;BME280_temperature;BME280_humidity;BME280_pressure;Samples;Min_cycle;Max_cycle;Signal;HPM_P1;HPM_P2
2021/03/15 00:01:01;;;;;;;29.83;14.40;;;;;;;29.70;51.04;101097.25;5007644;28;70742;-34
2021/03/15 00:03:31;;;;;;;33.08;15.90;;;;;;;29.76;51.62;101093.69;5007939;28;65581;-34
2021/03/15 00:06:04;;;;;;;34.75;15.13;;;;;;;29.79;51.40;101096.00;5005911;28;70537;-34
2021/03/15 00:08:34;;;;;;;;;;;;;;;29.88;51.61;101103.91;5008254;28;65976;-34
2021/03/15 00:11:04;;;;;;;39.53;15.07;;;;;;;29.94;52.23;101109.28;5006701;28;69222;-33
2021/03/15 00:13:34;;;;;;;36.47;15.63;;;;;;;29.95;51.48;101115.53;4995692;28;67051;-33
2021/03/15 00:16:04;;;;;;;22.00;14.02;;;;;;;29.92;51.76;101116.81;5000597;28;69262;-33
2021/03/15 00:18:34;;;;;;;27.80;14.07;;;;;;;29.91;51.73;101115.13;5011399;28;66353;-33
2021/03/15 00:21:04;;;;;;;28.25;13.82;;;;;;;29.92;51.63;101116.81;5009750;28;69930;-33
2021/03/15 00:23:34;;;;;;;24.17;13.68;;;;;;;29.94;51.15;101119.28;5000560;28;65971;-32
2021/03/15 00:26:04;;;;;;;23.85;12.32;;;;;;;29.93;51.33;101123.03;5009356;28;70367;-33
2021/03/15 00:28:34;;;;;;;20.25;12.85;;;;;;;29.95;51.33;101127.19;5010995;28;65951;-32
2021/03/15 00:31:03;;;;;;;17.98;12.02;;;;;;;29.94;51.33;101122.00;5007193;28;69557;-33
2021/03/15 00:33:33;;;;;;;17.13;11.93;;;;;;;29.98;51.00;101125.94;5012225;28;65197;-32
2021/03/15 00:36:20;;;;;;;18.40;12.10;;;;;;;29.99;50.71;101122.19;5008701;28;69741;-32
2021/03/15 00:38:50;;;;;;;16.33;12.88;;;;;;;30.00;51.05;101118.44;5006895;28;66120;-32
2021/03/15 00:41:20;;;;;;;20.45;11.30;;;;;;;29.98;50.90;101115.13;5007423;28;69275;-32
2021/03/15 00:43:50;;;;;;;16.25;11.05;;;;;;;29.99;50.51;101122.19;5002390;28;66488;-32
2021/03/15 00:46:20;;;;;;;20.35;11.40;;;;;;;29.96;50.85;101117.22;5010696;28;69534;-33
2021/03/15 00:48:50;;;;;;;12.00;10.90;;;;;;;30.01;50.71;101125.53;5015789;28;65999;-33
2021/03/15 00:51:21;;;;;;;12.60;11.25;;;;;;;30.02;50.61;101127.19;4989526;28;70188;-33
2021/03/15 00:53:50;;;;;;;13.85;10.85;;;;;;;30.01;50.20;101125.53;4998410;28;66230;-34
2021/03/15 00:56:26;;;;;;;12.25;11.02;;;;;;;30.05;50.91;101126.78;4994492;28;69214;-32
2021/03/15 00:58:56;;;;;;;21.88;10.85;;;;;;;30.07;50.20;101130.09;5009247;28;65519;-32
2021/03/15 01:01:37;;;;;;;14.93;11.25;;;;;;;30.05;50.28;101132.19;5011052;28;69989;-32
2021/03/15 01:04:11;;;;;;;;;;;;;;;30.05;51.04;101140.28;5014055;28;66532;-32
2021/03/15 01:06:58;;;;;;;19.58;11.55;;;;;;;30.10;50.49;101134.28;5015695;28;69207;-32
2021/03/15 01:09:40;;;;;;;;;;;;;;;30.16;50.34;101138.84;5013615;28;66902;-33
2021/03/15 01:12:24;;;;;;;16.23;11.23;;;;;;;30.24;49.71;101144.06;5012193;28;69054;-32
2021/03/15 01:14:54;;;;;;;14.70;11.55;;;;;;;30.21;50.28;101153.41;5001914;28;65695;-33
2021/03/15 01:17:31;;;;;;;16.23;11.55;;;;;;;30.20;50.44;101154.44;5005284;28;69141;-33
2021/03/15 01:20:04;;;;;;;13.20;11.00;;;;;;;30.18;50.45;101161.94;5011714;28;65852;-33
2021/03/15 01:22:34;;;;;;;15.98;11.50;;;;;;;30.24;50.84;101163.84;5007469;28;69981;-33
2021/03/15 01:25:06;;;;;;;19.90;12.27;;;;;;;30.22;51.79;101165.09;5014121;28;65614;-31
2021/03/15 01:27:36;;;;;;;15.98;11.95;;;;;;;30.26;51.99;101175.28;5014182;28;69242;-31
2021/03/15 01:30:16;;;;;;;24.00;12.98;;;;;;;30.17;52.94;101173.81;5006409;28;66100;-32
2021/03/15 01:32:45;;;;;;;17.30;12.00;;;;;;;30.19;52.84;101174.41;5013254;28;69724;-32
2021/03/15 01:35:15;;;;;;;19.15;12.18;;;;;;;30.18;52.65;101167.34;5014327;28;66032;-40
2021/03/15 01:37:45;;;;;;;22.90;12.52;;;;;;;30.19;53.07;101174.41;5016791;28;69753;-32
2021/03/15 01:40:15;;;;;;;16.83;12.20;;;;;;;30.10;52.74;101172.97;5013496;28;65955;-32
2021/03/15 01:42:45;;;;;;;26.67;13.55;;;;;;;30.19;52.45;101179.81;5005908;28;70246;-33
2021/03/15 01:45:15;;;;;;;17.52;12.27;;;;;;;30.20;52.80;101176.09;5014928;28;65071;-33
2021/03/15 01:47:46;;;;;;;20.63;12.38;;;;;;;30.19;52.77;101182.53;4994918;28;69758;-31
2021/03/15 01:50:18;;;;;;;19.67;12.50;;;;;;;30.22;52.90;101187.56;5013034;28;65870;-32
2021/03/15 01:52:52;;;;;;;13.07;11.25;;;;;;;30.25;52.10;101180.91;5014885;28;69705;-32
2021/03/15 01:55:23;;;;;;;17.85;12.23;;;;;;;30.26;52.15;101194.22;5006636;28;65900;-31
2021/03/15 01:57:54;;;;;;;17.02;11.63;;;;;;;30.29;51.98;101192.97;5015537;28;68206;-33
2021/03/15 02:00:23;;;;;;;17.92;12.15;;;;;;;30.26;52.13;101182.59;5007696;28;67360;-33
2021/03/15 02:02:57;;;;;;;20.25;12.52;;;;;;;30.33;52.12;101196.91;5009307;28;71018;-33
2021/03/15 02:05:36;;;;;;;15.82;12.20;;;;;;;30.29;52.07;101187.56;5012268;28;65296;-32
2021/03/15 02:08:06;;;;;;;;;;;;;;;30.31;52.28;101209.00;5015791;28;69526;-32
2021/03/15 02:10:37;;;;;;;19.02;11.60;;;;;;;30.34;51.29;101186.91;4996250;28;66099;-31
2021/03/15 02:13:32;;;;;;;15.48;12.60;;;;;;;30.42;52.00;101208.38;5014029;28;68931;-32
2021/03/15 02:16:14;;;;;;;14.68;11.60;;;;;;;30.45;51.51;101202.53;4999086;28;66127;-32
2021/03/15 02:19:01;;;;;;;19.38;11.50;;;;;;;30.48;51.18;101202.13;5013304;28;69936;-34
2021/03/15 02:21:46;;;;;;;13.85;11.85;;;;;;;30.50;51.45;101200.03;5014822;28;65882;-32
2021/03/15 02:24:39;;;;;;;18.60;13.38;;;;;;;30.47;50.95;101186.91;5009733;28;69821;-34
2021/03/15 02:27:45;;;;;;;23.13;12.57;;;;;;;30.57;50.67;101197.34;5012698;28;65377;-32
2021/03/15 02:30:34;;;;;;;17.30;12.27;;;;;;;30.61;50.64;101199.38;5008061;28;70592;-32
2021/03/15 02:33:32;;;;;;;19.20;12.38;;;;;;;30.61;50.90;101202.09;5018032;28;65587;-33
2021/03/15 02:36:05;;;;;;;22.38;13.38;;;;;;;30.58;50.52;101175.44;5009699;28;70353;-33
2021/03/15 02:38:38;;;;;;;19.15;12.93;;;;;;;30.71;50.27;101188.13;5005973;28;66147;-32
2021/03/15 02:41:10;;;;;;;15.88;12.40;;;;;;;30.72;50.65;101181.66;5015418;28;70436;-32
2021/03/15 02:43:43;;;;;;;15.50;12.33;;;;;;;30.75;49.93;101185.81;5011005;28;65346;-32
2021/03/15 02:46:19;;;;;;;19.25;12.80;;;;;;;30.77;49.87;101178.31;5010359;28;70638;-31
2021/03/15 02:48:54;;;;;;;17.77;11.90;;;;;;;30.82;50.30;101187.50;5009710;28;64615;-33
2021/03/15 02:51:28;;;;;;;12.95;11.40;;;;;;;30.85;50.03;101180.84;5010466;28;69030;-32
2021/03/15 02:53:59;;;;;;;12.57;11.30;;;;;;;30.87;49.48;101178.72;5007474;28;66111;-32
2021/03/15 02:56:33;;;;;;;14.43;11.85;;;;;;;30.80;49.54;101173.34;5005132;28;70107;-32
2021/03/15 02:59:05;;;;;;;18.15;11.13;;;;;;;30.91;49.29;101183.50;5002349;28;65411;-33
2021/03/15 03:01:39;;;;;;;16.98;11.75;;;;;;;30.96;49.27;101185.59;5008277;28;68984;-33
2021/03/15 03:04:11;;;;;;;18.42;12.27;;;;;;;30.99;49.29;101187.03;5011081;28;66030;-32
2021/03/15 03:06:43;;;;;;;20.23;13.20;;;;;;;30.90;49.02;101156.66;5015651;28;70094;-33
2021/03/15 03:09:16;;;;;;;16.90;12.43;;;;;;;31.02;49.06;101175.78;5008247;28;66054;-33
2021/03/15 03:11:49;;;;;;;13.48;12.10;;;;;;;30.97;48.84;101157.44;5007405;28;69991;-34
2021/03/15 03:14:21;;;;;;;16.52;11.75;;;;;;;31.02;49.11;101163.06;5002264;28;65317;-34
2021/03/15 03:16:51;;;;;;;12.82;11.52;;;;;;;31.12;49.18;101165.28;5007316;28;70303;-32
2021/03/15 03:19:24;;;;;;;16.65;12.85;;;;;;;31.14;49.16;101166.75;5011173;28;65824;-34
2021/03/15 03:21:57;;;;;;;14.45;11.82;;;;;;;31.17;48.96;101162.78;5006759;28;69978;-32
2021/03/15 03:24:27;;;;;;;;;;;;;;;31.10;49.01;101160.09;5018409;28;66173;-34
2021/03/15 03:26:58;;;;;;;12.95;11.65;;;;;;;31.23;48.79;101144.81;5007705;28;69319;-32
2021/03/15 03:29:28;;;;;;;13.07;11.48;;;;;;;31.26;48.84;101149.81;5007115;28;66206;-32
2021/03/15 03:31:58;;;;;;;12.63;11.57;;;;;;;31.30;48.59;101148.34;4995263;28;70116;-32
2021/03/15 03:34:28;;;;;;;15.77;11.40;;;;;;;31.32;48.51;101138.13;5010630;28;66437;-32
2021/03/15 03:36:58;;;;;;;17.45;12.63;;;;;;;31.34;48.26;101133.28;5010105;28;69923;-33
2021/03/15 03:39:28;;;;;;;14.13;11.88;;;;;;;31.32;48.60;101116.44;5006846;28;66413;-32
2021/03/15 03:41:58;;;;;;;14.43;11.95;;;;;;;31.33;48.30;101109.94;5003270;28;69877;-32
2021/03/15 03:44:27;;;;;;;16.88;13.05;;;;;;;31.39;47.99;101115.34;5013215;28;65990;-32
2021/03/15 03:46:57;;;;;;;13.77;12.30;;;;;;;31.37;48.33;101109.34;5007892;28;70413;-31
2021/03/15 03:49:27;;;;;;;15.45;12.40;;;;;;;31.45;48.25;101110.94;5010844;28;66100;-32
2021/03/15 03:52:02;;;;;;;15.70;12.70;;;;;;;31.45;48.33;101104.69;5009289;28;70275;-32
2021/03/15 03:54:44;;;;;;;16.10;12.45;;;;;;;31.51;48.24;101109.22;5008655;28;66030;-33
2021/03/15 03:57:15;;;;;;;;;;;;;;;31.51;48.16;101101.09;5010404;28;69928;-32
2021/03/15 03:59:49;;;;;;;13.98;12.50;;;;;;;31.58;47.80;101094.59;5000489;28;66223;-32
2021/03/15 04:02:24;;;;;;;15.35;12.65;;;;;;;31.67;47.21;101097.03;5008785;28;68695;-33
2021/03/15 04:05:07;;;;;;;14.90;12.13;;;;;;;31.58;47.54;101072.88;5008172;28;67198;-32
2021/03/15 04:07:44;;;;;;;13.70;12.27;;;;;;;31.70;47.51;101077.59;5007364;28;69726;-31
2021/03/15 04:10:14;;;;;;;20.40;12.82;;;;;;;31.73;47.14;101074.44;5003956;28;67321;-32
2021/03/15 04:12:49;;;;;;;13.82;12.63;;;;;;;31.79;47.46;101068.16;5004193;28;70816;-33
2021/03/15 04:15:19;;;;;;;16.25;13.60;;;;;;;31.81;47.27;101066.03;5013958;28;65072;-33
2021/03/15 04:17:50;;;;;;;27.48;13.82;;;;;;;31.81;47.21;101063.31;5009064;28;69582;-32
2021/03/15 04:20:31;;;;;;;17.20;12.90;;;;;;;31.84;46.95;101054.72;5014877;28;65282;-32
2021/03/15 04:23:05;;;;;;;22.35;14.13;;;;;;;31.92;47.08;101053.66;5012323;28;69658;-33
2021/03/15 04:25:38;;;;;;;15.88;13.32;;;;;;;31.95;46.91;101045.88;5012849;28;65371;-33
2021/03/15 04:28:09;;;;;;;16.75;14.40;;;;;;;32.01;46.66;101045.00;5013585;28;70872;-33
2021/03/15 04:30:41;;;;;;;15.57;12.90;;;;;;;32.03;47.02;101037.44;5006539;28;66087;-32
2021/03/15 04:33:12;;;;;;;15.23;12.98;;;;;;;32.04;46.81;101031.00;5015694;28;69371;-32
2021/03/15 04:35:43;;;;;;;15.30;13.80;;;;;;;32.12;46.45;101035.28;5013434;28;66026;-33
2021/03/15 04:38:14;;;;;;;19.48;13.63;;;;;;;32.16;46.83;101024.81;5023551;28;69397;-32
2021/03/15 04:40:51;;;;;;;17.30;14.57;;;;;;;32.19;46.38;101019.75;5015447;28;65988;-33
2021/03/15 04:43:23;;;;;;;15.00;13.40;;;;;;;32.21;46.53;101014.94;5001767;28;69793;-33
2021/03/15 04:46:00;;;;;;;17.70;14.63;;;;;;;32.25;46.76;101012.59;5010302;28;65862;-32
2021/03/15 04:48:39;;;;;;;19.15;14.77;;;;;;;32.22;46.41;100991.34;4991853;28;70133;-32
2021/03/15 04:51:11;;;;;;;15.55;14.00;;;;;;;32.30;46.53;100993.75;4994005;28;66782;-33
2021/03/15 04:53:43;;;;;;;17.30;14.55;;;;;;;32.31;46.06;100979.09;5013976;28;69868;-33
2021/03/15 04:56:16;;;;;;;20.83;15.03;;;;;;;32.30;45.71;100963.88;5010564;28;65897;-33
2021/03/15 04:58:50;;;;;;;21.83;14.57;;;;;;;32.41;46.27;100973.97;5015294;28;70114;-32
2021/03/15 05:01:22;;;;;;;17.20;14.50;;;;;;;32.43;46.17;100976.44;5010824;28;65979;-33
2021/03/15 05:03:53;;;;;;;18.98;15.55;;;;;;;32.41;45.97;100952.25;5008819;28;69767;-32
2021/03/15 05:06:25;;;;;;;20.17;15.80;;;;;;;32.52;45.72;100952.56;5010193;28;66510;-32
2021/03/15 05:08:56;;;;;;;18.08;15.93;;;;;;;32.56;45.92;100953.75;5010442;28;69698;-33
2021/03/15 05:11:32;;;;;;;20.35;15.60;;;;;;;32.58;45.72;100951.66;5008918;28;66738;-31
2021/03/15 05:14:08;;;;;;;22.30;14.82;;;;;;;32.60;45.81;100941.41;4997238;28;68791;-33
2021/03/15 05:16:41;;;;;;;18.42;16.00;;;;;;;32.59;45.77;100937.81;5007963;28;65567;-33
2021/03/15 05:19:13;;;;;;;20.90;15.07;;;;;;;32.65;46.15;100925.22;5005270;28;69274;-31
2021/03/15 05:21:45;;;;;;;23.02;16.83;;;;;;;32.67;45.96;100917.66;5010874;28;65868;-33
2021/03/15 05:24:17;;;;;;;24.15;16.27;;;;;;;32.70;45.77;100911.78;5005778;28;68730;-32
2021/03/15 05:26:48;;;;;;;;;;;;;;;32.75;45.29;100898.31;5003677;28;65968;-32
2021/03/15 05:29:23;;;;;;;21.67;16.95;;;;;;;32.82;45.29;100887.34;5007488;28;70091;-32
2021/03/15 05:31:55;;;;;;;21.92;16.75;;;;;;;32.82;45.28;100877.31;5014055;28;65347;-33
2021/03/15 05:34:28;;;;;;;20.10;16.85;;;;;;;32.83;45.69;100884.41;5013289;28;70123;-33
2021/03/15 05:37:02;;;;;;;22.02;16.80;;;;;;;32.84;45.58;100872.47;5005375;28;66005;-34
2021/03/15 05:39:35;;;;;;;21.77;17.13;;;;;;;32.88;44.98;100864.69;5001588;28;69605;-32
2021/03/15 05:42:24;;;;;;;20.58;17.40;;;;;;;32.89;45.36;100867.16;5009256;28;66413;-33
2021/03/15 05:45:12;;;;;;;21.30;17.20;;;;;;;32.84;45.38;100852.63;5007311;28;71016;-32
2021/03/15 05:48:01;;;;;;;20.58;17.38;;;;;;;32.93;45.25;100843.91;5012897;28;65799;-33
2021/03/15 05:50:42;;;;;;;19.95;17.58;;;;;;;32.94;45.33;100842.84;5013459;28;69782;-32
2021/03/15 05:53:20;;;;;;;21.55;17.60;;;;;;;32.99;45.17;100833.13;5021152;28;66524;-32
2021/03/15 05:56:15;;;;;;;22.92;18.15;;;;;;;33.02;44.96;100832.72;5005536;28;69143;-33
2021/03/15 05:59:23;;;;;;;24.40;18.25;;;;;;;33.08;45.11;100826.34;5002668;28;66564;-33
2021/03/15 06:02:19;;;;;;;25.75;18.02;;;;;;;33.08;45.06;100821.72;5009914;28;69985;-32
2021/03/15 06:04:59;;;;;;;21.00;18.48;;;;;;;33.11;45.02;100820.41;5010899;28;66202;-32
2021/03/15 06:07:36;;;;;;;28.20;19.08;;;;;;;33.12;45.14;100820.16;5015993;28;69133;-33
2021/03/15 06:10:09;;;;;;;26.67;18.30;;;;;;;33.14;44.56;100806.34;5012999;28;66292;-31
2021/03/15 06:12:54;;;;;;;28.05;19.70;;;;;;;33.21;45.09;100809.78;5011184;28;69858;-33
2021/03/15 06:15:46;;;;;;;21.92;18.52;;;;;;;33.22;44.64;100795.13;4998445;28;65997;-33
2021/03/15 06:18:18;;;;;;;25.35;19.48;;;;;;;33.22;44.63;100800.56;5010334;28;69903;-32
2021/03/15 06:20:50;;;;;;;21.95;19.42;;;;;;;33.26;44.37;100801.72;5010072;28;65953;-32
2021/03/15 06:23:21;;;;;;;26.10;19.90;;;;;;;33.27;44.65;100781.66;5010964;28;69919;-32
2021/03/15 06:25:53;;;;;;;30.30;18.98;;;;;;;33.32;44.53;100789.91;5013099;28;66710;-33
2021/03/15 06:28:25;;;;;;;25.35;19.17;;;;;;;33.33;44.34;100780.69;5011466;28;69810;-32
2021/03/15 06:30:56;;;;;;;27.85;19.17;;;;;;;33.32;44.64;100765.44;5010347;28;65677;-32
2021/03/15 06:33:28;;;;;;;30.33;19.15;;;;;;;33.40;44.26;100769.66;5006324;28;69445;-33
2021/03/15 06:36:02;;;;;;;26.00;20.17;;;;;;;33.36;44.41;100747.56;5013201;28;65250;-32
2021/03/15 06:38:35;;;;;;;29.67;19.73;;;;;;;33.48;44.33;100760.31;5004310;28;70459;-32
2021/03/15 06:41:07;;;;;;;23.38;19.95;;;;;;;33.51;44.22;100746.22;5004788;28;65454;-32
2021/03/15 06:43:40;;;;;;;24.13;20.85;;;;;;;33.52;44.48;100745.19;5006159;28;69180;-32
2021/03/15 06:46:15;;;;;;;26.60;19.83;;;;;;;33.51;44.05;100736.16;5009072;28;65076;-32
2021/03/15 06:48:46;;;;;;;25.55;19.83;;;;;;;33.56;44.53;100730.03;5008930;28;70120;-32
2021/03/15 06:51:17;;;;;;;24.08;20.02;;;;;;;33.61;44.22;100727.44;5005701;28;65907;-32
2021/03/15 06:53:48;;;;;;;27.27;21.38;;;;;;;33.65;44.15;100723.13;5007265;28;69926;-31
2021/03/15 06:56:20;;;;;;;26.95;20.20;;;;;;;33.69;44.23;100727.03;5014494;28;65312;-31
2021/03/15 06:58:57;;;;;;;23.25;20.17;;;;;;;33.71;43.99;100722.19;5010593;28;69833;-32
2021/03/15 07:01:29;;;;;;;23.58;20.77;;;;;;;33.73;44.07;100714.59;5011382;28;65204;-32
2021/03/15 07:04:09;;;;;;;27.98;20.80;;;;;;;33.74;44.08;100708.09;5003553;28;70607;-32
2021/03/15 07:06:42;;;;;;;24.17;20.30;;;;;;;33.68;43.95;100692.72;5005807;28;66030;-32
2021/03/15 07:09:16;;;;;;;26.75;20.95;;;;;;;33.72;44.00;100690.38;4994576;28;68846;-32
2021/03/15 07:12:01;;;;;;;25.60;21.02;;;;;;;33.76;43.80;100697.78;5004498;28;65180;-32
2021/03/15 07:14:33;;;;;;;24.45;21.27;;;;;;;33.87;43.88;100693.34;5004855;28;69731;-32
2021/03/15 07:17:06;;;;;;;23.25;20.67;;;;;;;33.90;43.74;100681.97;5010209;28;66051;-32
2021/03/15 07:19:43;;;;;;;25.70;20.10;;;;;;;33.91;43.64;100689.06;5001075;28;69183;-32
2021/03/15 07:22:26;;;;;;;28.52;21.38;;;;;;;33.98;43.58;100688.91;5010991;28;65975;-32
2021/03/15 07:25:12;;;;;;;25.13;21.13;;;;;;;33.97;43.76;100682.66;5007517;28;70861;-32
2021/03/15 07:27:49;;;;;;;27.15;21.08;;;;;;;33.95;43.63;100670.34;5007500;28;65932;-32
2021/03/15 07:30:30;;;;;;;26.20;21.48;;;;;;;34.04;43.41;100685.19;5002348;28;69908;-33
2021/03/15 07:33:22;;;;;;;31.65;21.05;;;;;;;34.09;43.22;100674.44;5005472;28;66885;-32
2021/03/15 07:35:52;;;;;;;27.98;20.38;;;;;;;34.10;43.41;100673.38;5015211;28;69600;-33
2021/03/15 07:38:33;;;;;;;28.15;21.77;;;;;;;34.08;43.32;100661.91;5013412;28;65575;-32
2021/03/15 07:41:24;;;;;;;24.55;21.75;;;;;;;34.13;43.20;100670.16;5014350;28;70322;-33
2021/03/15 07:43:55;;;;;;;26.10;21.00;;;;;;;34.19;43.31;100669.16;4997391;28;65162;-32
2021/03/15 07:46:29;;;;;;;23.98;21.35;;;;;;;34.18;43.04;100653.88;5014051;28;68948;-31
2021/03/15 07:49:00;;;;;;;25.52;20.50;;;;;;;34.22;43.13;100660.50;5009756;28;66064;-32
2021/03/15 07:51:34;;;;;;;29.27;21.60;;;;;;;34.33;43.20;100657.94;5003965;28;69325;-32
2021/03/15 07:54:10;;;;;;;24.95;21.50;;;;;;;34.34;42.90;100659.56;5009894;28;66665;-32
2021/03/15 07:56:41;;;;;;;28.10;20.98;;;;;;;34.40;43.13;100669.47;5010299;28;69958;-33
2021/03/15 07:59:14;;;;;;;27.70;20.33;;;;;;;34.40;42.96;100661.28;5008441;28;66848;-33
2021/03/15 08:01:45;;;;;;;26.80;20.42;;;;;;;34.47;42.99;100659.22;5008899;28;71378;-33
2021/03/15 08:04:16;;;;;;;22.75;19.60;;;;;;;34.50;42.66;100642.38;5014744;28;66858;-32
2021/03/15 08:06:47;;;;;;;30.10;19.70;;;;;;;34.45;42.79;100628.69;4995180;28;68279;-31
2021/03/15 08:09:17;;;;;;;22.65;19.73;;;;;;;34.54;43.06;100648.16;5011600;28;65660;-32
2021/03/15 08:11:56;;;;;;;27.25;20.70;;;;;;;34.51;42.90;100644.03;5008110;28;69628;-32
2021/03/15 08:14:32;;;;;;;23.95;19.63;;;;;;;34.60;42.62;100648.03;5008221;28;66883;-33
2021/03/15 08:17:05;;;;;;;24.70;19.00;;;;;;;34.63;43.00;100655.69;5011114;28;69612;-31
2021/03/15 08:19:38;;;;;;;27.73;18.27;;;;;;;34.65;42.60;100650.78;5009826;28;65978;-34
2021/03/15 08:22:12;;;;;;;21.42;17.95;;;;;;;34.69;43.00;100651.94;5006143;28;69951;-31
2021/03/15 08:24:44;;;;;;;25.42;19.25;;;;;;;34.73;42.74;100651.44;5009661;28;66493;-34
2021/03/15 08:27:15;;;;;;;23.17;18.20;;;;;;;34.76;42.39;100656.38;5001481;28;69929;-32
2021/03/15 08:29:47;;;;;;;27.50;18.23;;;;;;;34.79;42.78;100661.31;5007290;28;65423;-33
2021/03/15 08:32:17;;;;;;;33.10;17.75;;;;;;;34.78;42.73;100656.97;5010460;28;69640;-32
2021/03/15 08:34:48;;;;;;;24.42;16.98;;;;;;;34.81;42.70;100656.47;5007148;28;65101;-32
2021/03/15 08:37:56;;;;;;;20.58;17.60;;;;;;;34.79;42.32;100662.16;5008780;28;69621;-32
2021/03/15 08:40:41;;;;;;;32.28;18.40;;;;;;;34.89;42.32;100664.19;5005677;28;65407;-32
2021/03/15 08:43:21;;;;;;;24.02;17.98;;;;;;;34.88;42.34;100660.66;5010333;28;69652;-32
2021/03/15 08:46:04;;;;;;;22.52;17.70;;;;;;;34.85;42.11;100654.84;5013503;28;65943;-32
2021/03/15 08:48:37;;;;;;;21.10;16.63;;;;;;;34.96;42.55;100672.97;5014123;28;69893;-33
2021/03/15 08:51:09;;;;;;;22.98;16.00;;;;;;;34.96;42.33;100667.53;5012117;28;65033;-32
2021/03/15 08:53:44;;;;;;;30.55;16.85;;;;;;;34.98;42.33;100665.38;5000101;28;69570;-31
2021/03/15 08:56:20;;;;;;;29.17;17.35;;;;;;;35.00;42.13;100674.16;5007847;28;65218;-32
2021/03/15 08:58:51;;;;;;;23.55;15.77;;;;;;;35.01;42.46;100664.06;5005259;28;70040;-33
2021/03/15 09:01:24;;;;;;;19.92;16.05;;;;;;;35.00;42.36;100662.41;4993884;28;66008;-33
2021/03/15 09:04:00;;;;;;;21.13;16.55;;;;;;;35.09;42.21;100667.19;5018692;28;69967;-34
2021/03/15 09:06:43;;;;;;;21.90;15.73;;;;;;;35.11;41.96;100670.50;5010771;28;66102;-33
2021/03/15 09:09:27;;;;;;;19.00;15.75;;;;;;;35.12;42.29;100669.41;5001512;28;70116;-33
2021/03/15 09:12:16;;;;;;;19.58;15.63;;;;;;;35.07;42.05;100652.97;5011900;28;66321;-33
2021/03/15 09:14:55;;;;;;;19.75;15.50;;;;;;;35.17;41.77;100660.47;5004388;28;69852;-33
2021/03/15 09:17:26;;;;;;;21.08;15.88;;;;;;;35.21;42.04;100663.50;5023598;28;65762;-33
2021/03/15 09:19:56;;;;;;;26.35;15.98;;;;;;;35.24;42.15;100663.00;5015178;28;69724;-32
2021/03/15 09:22:30;;;;;;;21.05;14.70;;;;;;;35.26;42.13;100667.09;5010923;28;65224;-33
2021/03/15 09:25:01;;;;;;;25.40;15.77;;;;;;;35.29;41.67;100665.78;5012074;28;69932;-33
2021/03/15 09:27:40;;;;;;;21.83;16.02;;;;;;;35.32;41.75;100668.00;5008301;28;66608;-33
2021/03/15 09:30:16;;;;;;;20.52;15.85;;;;;;;35.32;41.45;100670.72;5008061;28;70382;-32
2021/03/15 09:32:50;;;;;;;20.65;14.35;;;;;;;35.31;41.86;100669.09;5013369;28;65427;-33
2021/03/15 09:35:30;;;;;;;17.55;13.73;;;;;;;35.32;41.57;100666.09;5009667;28;70949;-32
2021/03/15 09:38:05;;;;;;;23.63;14.07;;;;;;;35.31;41.58;100663.63;5011501;28;65370;-32
2021/03/15 09:40:39;;;;;;;24.40;14.57;;;;;;;35.36;41.89;100669.16;5012672;28;70220;-34
2021/03/15 09:43:30;;;;;;;21.02;14.23;;;;;;;35.31;42.31;100669.09;5014578;28;65943;-32
2021/03/15 09:46:04;;;;;;;23.07;13.93;;;;;;;35.32;42.03;100674.25;4997931;28;68801;-34
2021/03/15 09:48:38;;;;;;;21.25;14.02;;;;;;;35.32;41.68;100673.44;4994773;28;67076;-33
2021/03/15 09:51:11;;;;;;;22.42;13.90;;;;;;;35.27;42.13;100673.38;5014478;28;70970;-32
2021/03/15 09:53:59;;;;;;;27.15;14.25;;;;;;;35.30;41.91;100672.88;5017869;28;66264;-33
2021/03/15 09:56:39;;;;;;;18.25;12.93;;;;;;;35.24;42.26;100668.44;4999734;28;70002;-33
2021/03/15 09:59:31;;;;;;;21.13;13.30;;;;;;;35.20;42.54;100667.31;4990251;28;65682;-36
2021/03/15 10:02:03;;;;;;;24.92;12.85;;;;;;;34.98;42.68;100670.84;5011372;28;69192;-33
2021/03/15 10:05:09;;;;;;;21.15;12.20;;;;;;;34.79;42.63;100683.94;4987842;28;65137;-34
2021/03/15 10:08:17;;;;;;;26.17;13.07;;;;;;;34.70;42.99;100675.38;5012070;28;69314;-32
2021/03/15 10:11:28;;;;;;;28.83;13.52;;;;;;;34.62;43.41;100683.97;4919439;28;65905;-33
2021/03/15 10:14:16;;;;;;;25.73;13.25;;;;;;;34.56;43.29;100690.44;4937845;28;69932;-33
2021/03/15 10:17:21;;;;;;;22.77;12.77;;;;;;;34.42;43.28;100675.50;4984937;28;65604;-33
2021/03/15 10:20:26;;;;;;;33.17;12.73;;;;;;;34.46;43.46;100690.25;4998265;28;69903;-33
2021/03/15 10:23:19;;;;;;;34.10;14.32;;;;;;;34.41;43.50;100692.91;5010498;28;65811;-34
2021/03/15 10:26:00;;;;;;;29.67;13.82;;;;;;;34.30;43.93;100683.75;4996093;28;69061;-32
2021/03/15 10:28:53;;;;;;;44.83;14.25;;;;;;;34.39;44.19;100692.34;5010682;28;66085;-36
2021/03/15 10:31:28;;;;;;;20.95;12.55;;;;;;;34.25;44.39;100676.31;5011455;28;70081;-34
2021/03/15 10:34:01;;;;;;;23.58;13.10;;;;;;;34.30;43.89;100691.06;4998505;28;66524;-33
2021/03/15 10:36:45;;;;;;;27.27;12.75;;;;;;;34.29;44.24;100694.88;4983981;28;70242;-36
2021/03/15 10:39:33;;;;;;;26.35;12.63;;;;;;;34.26;44.22;100690.75;4989430;28;66197;-34
2021/03/15 10:42:04;;;;;;;26.63;13.68;;;;;;;34.15;44.28;100684.31;5015961;28;69829;-35
2021/03/15 10:44:35;;;;;;;36.53;13.13;;;;;;;34.17;44.29;100697.69;5014902;28;65415;-33
2021/03/15 10:47:11;;;;;;;44.67;11.75;;;;;;;34.14;44.75;100709.91;4979824;28;69073;-33
2021/03/15 10:49:47;;;;;;;20.58;11.98;;;;;;;34.14;44.56;100709.91;5016766;28;66260;-33
2021/03/15 10:52:39;;;;;;;;;;;;;;;34.08;44.66;100700.00;5013187;28;69937;-32
2021/03/15 10:55:21;;;;;;;25.70;11.63;;;;;;;34.09;44.29;100690.75;5012702;28;66394;-33
2021/03/15 10:58:00;;;;;;;25.65;11.60;;;;;;;33.99;43.83;100680.50;5000166;28;68992;-33
2021/03/15 11:00:40;;;;;;;21.73;11.98;;;;;;;34.07;44.53;100697.53;5014095;28;66118;-33
2021/03/15 11:03:31;;;;;;;34.22;12.38;;;;;;;33.93;44.23;100711.41;5011582;28;69362;-32
2021/03/15 11:06:19;;;;;;;27.10;13.27;;;;;;;33.86;44.00;100707.22;5009231;28;66044;-33
2021/03/15 11:09:04;;;;;;;22.08;11.85;;;;;;;33.95;44.07;100716.63;4984526;28;69021;-32
2021/03/15 11:11:34;;;;;;;20.35;11.13;;;;;;;33.90;43.99;100724.69;5003246;28;66855;-32
2021/03/15 11:14:14;;;;;;;25.13;11.60;;;;;;;33.77;44.22;100721.22;5012363;28;69134;-33
2021/03/15 11:17:02;;;;;;;19.67;11.75;;;;;;;33.81;43.90;100726.97;5006321;28;65737;-33
2021/03/15 11:19:53;;;;;;;24.40;11.38;;;;;;;33.77;44.21;100732.09;5007353;28;70204;-33
2021/03/15 11:22:51;;;;;;;15.75;10.75;;;;;;;33.72;44.33;100723.84;4997597;28;65348;-35
2021/03/15 11:25:29;;;;;;;15.10;10.55;;;;;;;33.74;44.15;100735.31;4981935;28;70089;-34
2021/03/15 11:28:06;;;;;;;16.83;11.00;;;;;;;33.73;44.05;100736.34;4995237;28;66505;-34
2021/03/15 11:30:37;;;;;;;19.15;11.25;;;;;;;33.73;44.16;100739.06;5016012;28;69301;-32
2021/03/15 11:33:14;;;;;;;19.23;10.40;;;;;;;33.69;44.09;100746.09;5014117;28;66147;-40
2021/03/15 11:36:14;;;;;;;24.55;11.43;;;;;;;33.64;44.33;100747.88;5014197;28;69272;-33
2021/03/15 11:39:07;;;;;;;19.70;11.30;;;;;;;33.61;44.29;100738.31;5003196;28;65934;-33
2021/03/15 11:41:47;;;;;;;22.65;11.65;;;;;;;33.63;44.29;100747.06;5006992;28;70834;-33
2021/03/15 11:44:19;;;;;;;32.08;12.30;;;;;;;33.59;44.30;100741.25;5014283;28;66399;-33
2021/03/15 11:46:49;;;;;;;23.42;11.27;;;;;;;33.55;44.38;100744.72;5010995;28;69542;-35
2021/03/15 11:49:26;;;;;;;28.05;12.07;;;;;;;33.53;44.76;100752.28;5001014;28;66185;-33
2021/03/15 11:52:05;;;;;;;29.27;11.60;;;;;;;33.49;44.82;100762.81;5001355;28;69627;-33
2021/03/15 11:54:55;;;;;;;21.33;10.68;;;;;;;33.49;44.88;100764.66;5002148;28;66029;-34